Time;durP1;ratioP1;P1;durP2;ratioP2;P2;SDS_P1;SDS_P2;PMS_P1;PMS_P2;Temp;Humidity;BMP_temperature;BMP_pressure;BME280_temperature;BME280_humidity;BME280_pressure;Samples;Min_cycle;Max_cycle;Signal;HPM_P1;HPM_P2
2023/01/06 00:00:16;;;;;;;29.97;17.70;;;;;;;;;;6237832;23;20155;-74
2023/01/06 00:02:41;;;;;;;25.17;17.03;;;;;;;;;;6239422;22;20175;-74
2023/01/06 00:05:07;;;;;;;31.53;17.83;;;;;;;;;;6238795;22;20183;-74
2023/01/06 00:07:32;;;;;;;25.83;17.23;;;;;;;;;;6239506;23;20144;-74
2023/01/06 00:09:57;;;;;;;31.10;18.57;;;;;;;;;;6238494;23;20147;-74
2023/01/06 00:12:25;;;;;;;25.83;16.77;;;;;;;;;;6237628;22;20618;-74
2023/01/06 00:14:50;;;;;;;25.93;16.57;;;;;;;;;;6238626;23;20174;-74
2023/01/06 00:17:16;;;;;;;25.13;18.17;;;;;;;;;;6238896;22;20365;-74
2023/01/06 00:19:41;;;;;;;31.37;17.70;;;;;;;;;;6237786;23;20170;-73
2023/01/06 00:22:06;;;;;;;21.43;16.33;;;;;;;;;;6242136;22;20596;-74
2023/01/06 00:24:32;;;;;;;28.47;18.47;;;;;;;;;;6241975;22;20703;-73
2023/01/06 00:26:58;;;;;;;26.47;18.30;;;;;;;;;;6240311;22;20485;-73
2023/01/06 00:29:23;;;;;;;30.53;17.77;;;;;;;;;;6240614;22;20198;-74
2023/01/06 00:31:48;;;;;;;29.13;16.63;;;;;;;;;;6241071;22;20190;-73
2023/01/06 00:34:13;;;;;;;24.17;15.30;;;;;;;;;;6239923;23;20221;-74
2023/01/06 00:36:39;;;;;;;23.47;15.00;;;;;;;;;;6241290;23;20182;-74
2023/01/06 00:39:04;;;;;;;26.50;14.90;;;;;;;;;;6240564;23;20147;-74
2023/01/06 00:44:13;;;;;;;25.20;14.50;;;;;;;;;;6236042;23;20143;-74
2023/01/06 00:46:38;;;;;;;23.37;14.73;;;;;;;;;;6238807;23;20363;-73
2023/01/06 00:49:04;;;;;;;23.40;13.40;;;;;;;;;;6240690;22;20521;-73
2023/01/06 00:51:30;;;;;;;21.33;13.27;;;;;;;;;;6241102;22;20167;-73
2023/01/06 00:53:57;;;;;;;24.10;12.90;;;;;;;;;;6241725;22;20646;-73
2023/01/06 00:56:22;;;;;;;17.30;11.63;;;;;;;;;;6239503;23;20506;-73
2023/01/06 00:58:48;;;;;;;17.80;12.03;;;;;;;;;;6240431;23;20421;-73
2023/01/06 01:01:13;;;;;;;20.00;11.93;;;;;;;;;;6238615;22;20163;-72
2023/01/06 01:03:38;;;;;;;16.77;10.43;;;;;;;;;;6237965;23;20159;-72
2023/01/06 01:06:05;;;;;;;20.33;11.60;;;;;;;;;;6240023;22;20511;-73
2023/01/06 01:08:30;;;;;;;16.77;9.37;;;;;;;;;;6238294;22;20147;-72
2023/01/06 01:11:01;;;;;;;23.93;10.03;;;;;;;;;;6238305;22;21087;-73
2023/01/06 01:13:26;;;;;;;19.53;9.80;;;;;;;;;;6237461;22;20140;-73
2023/01/06 01:15:52;;;;;;;19.97;10.83;;;;;;;;;;6235797;23;20886;-73
2023/01/06 01:18:17;;;;;;;16.13;9.83;;;;;;;;;;6233653;23;20225;-73
2023/01/06 01:20:44;;;;;;;18.30;9.47;;;;;;;;;;6231684;22;20170;-73
2023/01/06 01:23:09;;;;;;;17.20;10.10;;;;;;;;;;6235720;22;20147;-73
2023/01/06 01:25:34;;;;;;;20.10;10.67;;;;;;;;;;6236192;23;21228;-73
2023/01/06 01:28:00;;;;;;;16.80;11.10;;;;;;;;;;6232226;23;20232;-73
2023/01/06 01:30:25;;;;;;;18.13;9.57;;;;;;;;;;6237550;22;20143;-73
2023/01/06 01:32:50;;;;;;;16.20;10.73;;;;;;;;;;6230937;23;20649;-73
2023/01/06 01:35:15;;;;;;;19.87;9.63;;;;;;;;;;6238308;23;20157;-73
2023/01/06 01:37:41;;;;;;;17.87;10.60;;;;;;;;;;6235032;23;20151;-73
2023/01/06 01:40:06;;;;;;;19.07;10.30;;;;;;;;;;6236347;23;20170;-73
2023/01/06 01:42:31;;;;;;;18.67;10.10;;;;;;;;;;6237273;22;20189;-73
2023/01/06 01:44:58;;;;;;;23.73;10.93;;;;;;;;;;6234695;23;20637;-73
2023/01/06 01:49:55;;;;;;;22.80;10.80;;;;;;;;;;6226174;23;20422;-74
2023/01/06 01:52:28;;;;;;;22.40;11.37;;;;;;;;;;6206556;23;20355;-75
2023/01/06 01:54:58;;;;;;;25.53;11.67;;;;;;;;;;6204531;23;20398;-75
2023/01/06 01:57:45;;;;;;;28.37;11.80;;;;;;;;;;6175492;23;20371;-74
2023/01/06 02:00:16;;;;;;;22.30;11.47;;;;;;;;;;6204462;23;21283;-74
2023/01/06 02:02:46;;;;;;;18.90;10.43;;;;;;;;;;6180301;23;20387;-74
2023/01/06 02:05:22;;;;;;;16.27;11.10;;;;;;;;;;6206673;23;20406;-74
2023/01/06 02:07:56;;;;;;;21.03;10.63;;;;;;;;;;6204985;23;20677;-74
2023/01/06 02:10:26;;;;;;;21.97;10.50;;;;;;;;;;6202447;23;20383;-75
2023/01/06 02:12:55;;;;;;;19.67;10.10;;;;;;;;;;6203414;23;20344;-75
2023/01/06 02:15:22;;;;;;;23.40;10.63;;;;;;;;;;6204227;23;20371;-75
2023/01/06 02:17:56;;;;;;;20.33;9.90;;;;;;;;;;6208089;23;20370;-75
2023/01/06 02:20:56;;;;;;;15.00;8.23;;;;;;;;;;6204904;23;21162;-75
2023/01/06 02:23:21;;;;;;;15.87;8.20;;;;;;;;;;6144317;23;20388;-75
2023/01/06 02:26:05;;;;;;;18.33;8.70;;;;;;;;;;6192807;23;20426;-75
2023/01/06 02:28:45;;;;;;;16.40;7.37;;;;;;;;;;6179999;23;20202;-75
2023/01/06 02:31:10;;;;;;;15.80;7.60;;;;;;;;;;6209381;23;20849;-75
2023/01/06 02:33:40;;;;;;;19.63;8.40;;;;;;;;;;6181811;23;20513;-75
2023/01/06 02:36:11;;;;;;;17.33;8.20;;;;;;;;;;6182771;23;20295;-74
2023/01/06 02:38:43;;;;;;;14.63;6.10;;;;;;;;;;6211115;23;20377;-75
2023/01/06 02:41:11;;;;;;;12.00;6.23;;;;;;;;;;6211048;23;20390;-75
2023/01/06 02:43:36;;;;;;;13.43;5.63;;;;;;;;;;6211194;23;20371;-75
2023/01/06 02:46:20;;;;;;;11.23;6.37;;;;;;;;;;6205736;23;20787;-75
2023/01/06 02:48:58;;;;;;;11.80;5.47;;;;;;;;;;6212007;23;20603;-75
2023/01/06 02:51:28;;;;;;;13.17;5.40;;;;;;;;;;6209861;23;20410;-75
2023/01/06 02:54:00;;;;;;;11.10;5.43;;;;;;;;;;6211292;23;20426;-75
2023/01/06 02:56:29;;;;;;;7.80;5.17;;;;;;;;;;6210898;23;20421;-75
2023/01/06 02:59:00;;;;;;;11.70;5.53;;;;;;;;;;6210492;23;20363;-75
2023/01/06 03:01:28;;;;;;;7.80;4.67;;;;;;;;;;6209718;23;20387;-75
2023/01/06 03:03:54;;;;;;;13.17;5.57;;;;;;;;;;6211503;23;20359;-75
2023/01/06 03:06:30;;;;;;;10.67;5.40;;;;;;;;;;6209832;23;20422;-75
2023/01/06 03:08:57;;;;;;;12.00;5.27;;;;;;;;;;6183347;23;20932;-75
2023/01/06 03:11:23;;;;;;;12.83;5.40;;;;;;;;;;6182825;23;20399;-75
2023/01/06 03:13:54;;;;;;;6.70;5.07;;;;;;;;;;6181656;23;20442;-75
2023/01/06 03:16:20;;;;;;;10.97;5.30;;;;;;;;;;6207755;23;21138;-75
2023/01/06 03:18:46;;;;;;;9.90;4.83;;;;;;;;;;6181616;23;20387;-75
2023/01/06 03:21:17;;;;;;;10.03;4.93;;;;;;;;;;6209955;23;20172;-75
2023/01/06 03:23:43;;;;;;;10.67;4.90;;;;;;;;;;6209915;23;20387;-75
2023/01/06 03:26:08;;;;;;;6.70;4.90;;;;;;;;;;6209177;23;20419;-75
2023/01/06 03:28:33;;;;;;;9.30;4.87;;;;;;;;;;6183582;23;20458;-75
2023/01/06 03:31:18;;;;;;;8.37;4.67;;;;;;;;;;6213263;23;20186;-75
2023/01/06 03:33:43;;;;;;;7.10;4.80;;;;;;;;;;6210886;23;20151;-75
2023/01/06 03:36:27;;;;;;;8.27;4.30;;;;;;;;;;6211452;23;20371;-75
2023/01/06 03:38:58;;;;;;;8.57;4.60;;;;;;;;;;6182668;23;20214;-75
2023/01/06 03:43:10;;;;;;;10.23;4.93;;;;;;;;;;6209314;23;20383;-75
2023/01/06 03:44:14;;;;;;;6.27;4.27;;;;;;;;;;6211400;23;20469;-75
2023/01/06 03:46:41;;;;;;;8.83;4.00;;;;;;;;;;6211034;23;21119;-75
2023/01/06 03:49:09;;;;;;;9.13;4.17;;;;;;;;;;6211206;23;20391;-75
2023/01/06 03:51:46;;;;;;;6.00;3.70;;;;;;;;;;6211708;23;20383;-75
2023/01/06 03:54:11;;;;;;;7.50;3.80;;;;;;;;;;6212266;23;20363;-75
2023/01/06 03:56:55;;;;;;;8.33;3.67;;;;;;;;;;6211177;23;20443;-75
2023/01/06 03:59:23;;;;;;;9.73;3.90;;;;;;;;;;6184959;23;20148;-75
2023/01/06 04:01:49;;;;;;;11.07;5.17;;;;;;;;;;6211768;23;20383;-75
2023/01/06 04:04:15;;;;;;;7.20;3.80;;;;;;;;;;6209320;23;20367;-75
2023/01/06 04:06:40;;;;;;;9.03;4.37;;;;;;;;;;6211670;23;20603;-75
2023/01/06 04:09:05;;;;;;;10.63;4.40;;;;;;;;;;6183324;23;20382;-75
2023/01/06 04:14:14;;;;;;;14.67;4.80;;;;;;;;;;6209683;23;20135;-75
2023/01/06 04:16:40;;;;;;;8.83;4.30;;;;;;;;;;6183378;23;20363;-75
2023/01/06 04:19:05;;;;;;;8.73;5.00;;;;;;;;;;6182148;23;20159;-75
2023/01/06 04:21:30;;;;;;;5.70;4.17;;;;;;;;;;6182985;23;20633;-75
2023/01/06 04:23:56;;;;;;;10.43;3.83;;;;;;;;;;6209741;23;20148;-75
2023/01/06 04:26:21;;;;;;;11.93;4.27;;;;;;;;;;6208291;23;20919;-75
2023/01/06 04:28:46;;;;;;;8.80;3.93;;;;;;;;;;6208752;23;20201;-75
2023/01/06 04:31:11;;;;;;;6.13;3.93;;;;;;;;;;6177804;23;20527;-75
2023/01/06 04:33:39;;;;;;;6.43;3.80;;;;;;;;;;6183987;23;20179;-75
2023/01/06 04:36:05;;;;;;;9.23;5.03;;;;;;;;;;6182371;23;20309;-75
2023/01/06 04:38:30;;;;;;;7.77;4.13;;;;;;;;;;6208893;23;20368;-75
2023/01/06 04:40:55;;;;;;;5.67;3.67;;;;;;;;;;6209493;23;20171;-75
2023/01/06 04:43:22;;;;;;;6.40;4.00;;;;;;;;;;6178936;23;20210;-75
2023/01/06 04:45:47;;;;;;;5.30;4.13;;;;;;;;;;6182115;23;20202;-75
2023/01/06 04:48:13;;;;;;;6.00;3.50;;;;;;;;;;6209843;23;21098;-75
2023/01/06 04:50:38;;;;;;;5.23;4.10;;;;;;;;;;6209819;23;20163;-75
2023/01/06 04:53:04;;;;;;;8.50;3.90;;;;;;;;;;6181934;23;20163;-74
2023/01/06 04:55:29;;;;;;;4.90;3.47;;;;;;;;;;6209326;23;20255;-75
2023/01/06 04:57:55;;;;;;;5.33;3.70;;;;;;;;;;6183732;23;20495;-75
2023/01/06 05:00:20;;;;;;;5.83;4.03;;;;;;;;;;6206969;23;20509;-75
2023/01/06 05:02:46;;;;;;;6.43;4.07;;;;;;;;;;6209688;23;20209;-75
2023/01/06 05:05:11;;;;;;;6.03;4.00;;;;;;;;;;6208304;23;20172;-75
2023/01/06 05:07:36;;;;;;;7.20;3.63;;;;;;;;;;6208218;23;20596;-74
2023/01/06 05:10:02;;;;;;;6.93;3.30;;;;;;;;;;6208055;23;20250;-75
2023/01/06 05:12:28;;;;;;;6.43;3.83;;;;;;;;;;6210582;23;20219;-75
2023/01/06 05:14:53;;;;;;;5.17;3.90;;;;;;;;;;6183918;23;20474;-75
2023/01/06 05:17:18;;;;;;;8.23;3.20;;;;;;;;;;6183050;23;20151;-75
2023/01/06 05:22:16;;;;;;;5.33;3.50;;;;;;;;;;6240970;23;20195;-74
2023/01/06 05:24:46;;;;;;;7.20;3.90;;;;;;;;;;6238447;23;20493;-74
2023/01/06 05:27:19;;;;;;;4.40;3.60;;;;;;;;;;6238223;23;20362;-74
2023/01/06 05:29:49;;;;;;;8.47;4.83;;;;;;;;;;6234843;23;20686;-74
2023/01/06 05:32:23;;;;;;;6.37;3.90;;;;;;;;;;6206504;23;20383;-74
2023/01/06 05:34:50;;;;;;;8.00;4.50;;;;;;;;;;6181532;23;20442;-75
2023/01/06 05:37:18;;;;;;;11.30;5.17;;;;;;;;;;6205708;23;20409;-75
2023/01/06 05:42:17;;;;;;;6.00;4.60;;;;;;;;;;6238146;23;20410;-74
2023/01/06 05:44:47;;;;;;;6.37;4.80;;;;;;;;;;6239725;22;20456;-74
2023/01/06 05:47:18;;;;;;;7.90;5.63;;;;;;;;;;6240884;22;20389;-74
2023/01/06 05:52:15;;;;;;;7.57;5.30;;;;;;;;;;6237865;23;20406;-74
2023/01/06 05:54:51;;;;;;;7.50;5.47;;;;;;;;;;6237686;23;20453;-74
2023/01/06 05:57:24;;;;;;;7.73;5.80;;;;;;;;;;6240616;23;20357;-74
2023/01/06 05:59:52;;;;;;;7.83;5.50;;;;;;;;;;6236530;23;20465;-74
2023/01/06 06:02:20;;;;;;;5.50;4.33;;;;;;;;;;6210969;23;20366;-74
2023/01/06 06:04:53;;;;;;;6.97;5.80;;;;;;;;;;6183474;23;20513;-74
2023/01/06 06:07:26;;;;;;;7.10;6.10;;;;;;;;;;6182996;23;20401;-74
2023/01/06 06:09:54;;;;;;;7.27;6.60;;;;;;;;;;6210105;23;20388;-74
2023/01/06 06:12:25;;;;;;;11.57;6.60;;;;;;;;;;6211007;23;20840;-74
2023/01/06 06:15:01;;;;;;;8.40;7.00;;;;;;;;;;6180522;23;20379;-74
2023/01/06 06:17:32;;;;;;;9.83;5.80;;;;;;;;;;6210699;23;20349;-74
2023/01/06 06:20:05;;;;;;;7.27;6.00;;;;;;;;;;6210575;23;20383;-74
2023/01/06 06:22:43;;;;;;;7.53;6.57;;;;;;;;;;6211805;23;20418;-74
2023/01/06 06:25:14;;;;;;;6.13;5.50;;;;;;;;;;6184869;23;20406;-74
2023/01/06 06:27:44;;;;;;;7.03;5.70;;;;;;;;;;6212141;23;20383;-74
2023/01/06 06:30:15;;;;;;;6.93;6.23;;;;;;;;;;6204914;23;20379;-74
2023/01/06 06:32:45;;;;;;;7.30;5.70;;;;;;;;;;6208751;23;20448;-74
2023/01/06 06:35:20;;;;;;;8.83;5.60;;;;;;;;;;6210998;23;20359;-74
2023/01/06 06:37:46;;;;;;;7.23;5.43;;;;;;;;;;6184354;23;20367;-74
2023/01/06 06:40:11;;;;;;;6.50;5.07;;;;;;;;;;6209162;23;20757;-74
2023/01/06 06:42:36;;;;;;;5.93;5.30;;;;;;;;;;6210780;23;20155;-74
2023/01/06 06:45:02;;;;;;;5.50;5.00;;;;;;;;;;6178237;23;20182;-74
2023/01/06 06:47:27;;;;;;;12.97;5.87;;;;;;;;;;6180802;23;20152;-76
2023/01/06 06:49:52;;;;;;;8.00;5.50;;;;;;;;;;6184025;23;20180;-75
2023/01/06 06:52:17;;;;;;;6.47;4.53;;;;;;;;;;6212246;23;20209;-75
2023/01/06 06:54:43;;;;;;;6.17;4.93;;;;;;;;;;6212174;23;20181;-74
2023/01/06 06:57:10;;;;;;;7.27;5.20;;;;;;;;;;6207816;23;20155;-75
2023/01/06 07:02:18;;;;;;;5.87;4.60;;;;;;;;;;6239883;22;20491;-74
2023/01/06 07:04:47;;;;;;;7.70;5.17;;;;;;;;;;6239408;23;20413;-74
2023/01/06 07:07:17;;;;;;;7.73;5.57;;;;;;;;;;6238567;23;20404;-74
2023/01/06 07:12:19;;;;;;;6.07;5.40;;;;;;;;;;6238486;23;20418;-78
2023/01/06 07:14:56;;;;;;;6.33;5.73;;;;;;;;;;6236864;23;20433;-75
2023/01/06 07:17:36;;;;;;;;;;;;;;;;;;;;;
2023/01/06 07:20:04;;;;;;;9.13;6.90;;;;;;;;;;6232232;23;20478;-75
2023/01/06 07:22:35;;;;;;;7.50;5.73;;;;;;;;;;6209349;23;20355;-75
2023/01/06 07:25:09;;;;;;;7.83;7.00;;;;;;;;;;6183440;23;20549;-75
2023/01/06 07:27:37;;;;;;;6.90;6.30;;;;;;;;;;6207030;23;20373;-75
2023/01/06 07:30:07;;;;;;;9.07;7.40;;;;;;;;;;6210490;23;20383;-75
2023/01/06 07:32:41;;;;;;;7.00;6.30;;;;;;;;;;6210587;23;20803;-75
2023/01/06 07:35:30;;;;;;;10.63;7.20;;;;;;;;;;6184074;23;20873;-75
2023/01/06 07:38:05;;;;;;;10.93;7.57;;;;;;;;;;6183915;23;20426;-75
2023/01/06 07:40:51;;;;;;;11.73;7.97;;;;;;;;;;6209842;23;20440;-75
2023/01/06 07:43:20;;;;;;;7.70;7.00;;;;;;;;;;6210848;23;20673;-75
2023/01/06 07:45:51;;;;;;;6.47;5.80;;;;;;;;;;6185768;23;20422;-75
2023/01/06 07:48:37;;;;;;;6.40;5.60;;;;;;;;;;6211827;23;20367;-75
2023/01/06 07:51:11;;;;;;;8.10;6.07;;;;;;;;;;6211696;23;20379;-75
2023/01/06 07:53:44;;;;;;;6.77;6.10;;;;;;;;;;6184698;23;20922;-76
2023/01/06 07:56:14;;;;;;;5.73;5.23;;;;;;;;;;6183793;23;20371;-76
2023/01/06 07:58:45;;;;;;;5.70;5.10;;;;;;;;;;6210790;23;20347;-76
2023/01/06 08:01:15;;;;;;;5.90;4.90;;;;;;;;;;6212398;23;20383;-76
2023/01/06 08:03:49;;;;;;;8.93;4.60;;;;;;;;;;6186204;23;20958;-77
2023/01/06 08:06:21;;;;;;;4.53;4.10;;;;;;;;;;6211813;23;20445;-76
2023/01/06 08:08:55;;;;;;;4.10;3.73;;;;;;;;;;6210391;23;20356;-77
2023/01/06 08:11:28;;;;;;;4.27;3.37;;;;;;;;;;6209504;23;20441;-76
2023/01/06 08:13:58;;;;;;;4.50;4.00;;;;;;;;;;6219465;23;20367;-76
2023/01/06 08:16:26;;;;;;;3.13;2.70;;;;;;;;;;6186193;23;20429;-77
2023/01/06 08:18:56;;;;;;;5.03;2.27;;;;;;;;;;6181499;23;20518;-76
2023/01/06 08:21:25;;;;;;;5.20;2.20;;;;;;;;;;6209686;23;20396;-76
2023/01/06 08:23:52;;;;;;;6.53;2.00;;;;;;;;;;6206858;23;20559;-75
2023/01/06 08:26:20;;;;;;;3.47;1.53;;;;;;;;;;6209167;23;20407;-76
2023/01/06 08:28:52;;;;;;;2.57;1.00;;;;;;;;;;6181152;23;20379;-76
2023/01/06 08:31:23;;;;;;;3.20;1.47;;;;;;;;;;6211421;23;20470;-76
2023/01/06 08:33:53;;;;;;;3.03;1.10;;;;;;;;;;6210453;23;20371;-76
2023/01/06 08:36:27;;;;;;;6.47;1.20;;;;;;;;;;6205743;23;20401;-76
2023/01/06 08:39:01;;;;;;;4.97;1.00;;;;;;;;;;6181594;23;20370;-75
2023/01/06 08:41:31;;;;;;;5.40;1.53;;;;;;;;;;6208971;23;20383;-76
2023/01/06 08:44:05;;;;;;;5.63;1.33;;;;;;;;;;6183472;23;20410;-76
2023/01/06 08:46:38;;;;;;;4.57;1.07;;;;;;;;;;6210114;23;20403;-75
2023/01/06 08:49:10;;;;;;;4.40;0.80;;;;;;;;;;6183789;23;20377;-76
2023/01/06 08:51:40;;;;;;;3.63;1.20;;;;;;;;;;6208434;23;20375;-75
2023/01/06 08:54:13;;;;;;;1.90;0.73;;;;;;;;;;6210223;23;20427;-76
2023/01/06 08:56:43;;;;;;;4.77;1.20;;;;;;;;;;6210433;23;20450;-76
2023/01/06 08:59:13;;;;;;;2.57;1.07;;;;;;;;;;6184761;23;20390;-76
2023/01/06 09:01:43;;;;;;;5.07;1.20;;;;;;;;;;6182575;23;20410;-76
2023/01/06 09:04:12;;;;;;;3.33;0.80;;;;;;;;;;6183735;23;20446;-76
2023/01/06 09:09:07;;;;;;;4.77;0.80;;;;;;;;;;6237813;23;20877;-75
2023/01/06 09:11:37;;;;;;;1.70;0.63;;;;;;;;;;6188447;23;20399;-75
2023/01/06 09:14:06;;;;;;;2.20;0.80;;;;;;;;;;6209962;23;20355;-74
2023/01/06 09:16:34;;;;;;;4.07;1.37;;;;;;;;;;6182349;23;20383;-75
2023/01/06 09:19:03;;;;;;;4.07;0.80;;;;;;;;;;6184177;23;20381;-74
2023/01/06 09:21:33;;;;;;;2.10;0.70;;;;;;;;;;6210083;23;20725;-75
2023/01/06 09:24:04;;;;;;;1.77;0.80;;;;;;;;;;6183864;23;20389;-74
2023/01/06 09:26:34;;;;;;;2.97;1.10;;;;;;;;;;6210874;23;20711;-74
2023/01/06 09:29:04;;;;;;;5.33;0.80;;;;;;;;;;6211206;23;20363;-74
2023/01/06 09:31:36;;;;;;;2.53;0.80;;;;;;;;;;6186773;23;20403;-76
2023/01/06 09:34:09;;;;;;;6.13;1.30;;;;;;;;;;6185595;23;20390;-76
2023/01/06 09:36:40;;;;;;;2.13;0.93;;;;;;;;;;6184804;23;20449;-75
2023/01/06 09:39:11;;;;;;;5.10;1.03;;;;;;;;;;6182578;23;20752;-75
2023/01/06 09:42:04;;;;;;;4.23;1.00;;;;;;;;;;6184800;23;20439;-75
2023/01/06 09:44:32;;;;;;;4.70;0.93;;;;;;;;;;6206734;23;20395;-75
2023/01/06 09:47:03;;;;;;;6.57;1.30;;;;;;;;;;6212171;23;20424;-76
2023/01/06 09:49:52;;;;;;;3.60;1.50;;;;;;;;;;6213153;23;20402;-75
2023/01/06 09:52:35;;;;;;;6.10;1.97;;;;;;;;;;6204201;23;20417;-76
2023/01/06 09:55:06;;;;;;;4.13;1.23;;;;;;;;;;6184763;23;20909;-75
2023/01/06 09:57:44;;;;;;;7.80;1.77;;;;;;;;;;6186109;23;20751;-75
2023/01/06 10:00:18;;;;;;;5.40;1.63;;;;;;;;;;6186945;23;20409;-76
2023/01/06 10:02:46;;;;;;;4.27;1.57;;;;;;;;;;6185011;23;20383;-76
2023/01/06 10:05:22;;;;;;;13.53;1.47;;;;;;;;;;6188073;23;20848;-76
2023/01/06 10:08:10;;;;;;;8.30;1.37;;;;;;;;;;6211939;23;20394;-75
2023/01/06 10:10:42;;;;;;;9.70;1.33;;;;;;;;;;6186317;23;20398;-75
2023/01/06 10:13:26;;;;;;;8.07;1.40;;;;;;;;;;6185388;23;20355;-75
2023/01/06 10:16:00;;;;;;;5.60;1.37;;;;;;;;;;6211922;23;20375;-76
2023/01/06 10:18:39;;;;;;;5.83;1.20;;;;;;;;;;6186600;23;20377;-75
2023/01/06 10:21:29;;;;;;;9.10;1.50;;;;;;;;;;6211829;23;20434;-76
2023/01/06 10:23:58;;;;;;;3.67;1.40;;;;;;;;;;6185604;23;20713;-75
2023/01/06 10:26:28;;;;;;;5.33;1.40;;;;;;;;;;6185521;23;21019;-76
2023/01/06 10:29:28;;;;;;;7.37;1.40;;;;;;;;;;6183973;23;20410;-75
2023/01/06 10:31:59;;;;;;;9.73;1.47;;;;;;;;;;6200303;23;20745;-75
2023/01/06 10:34:30;;;;;;;14.07;1.50;;;;;;;;;;6213201;23;20355;-76
2023/01/06 10:37:16;;;;;;;10.00;2.00;;;;;;;;;;6211277;23;20347;-75
2023/01/06 10:39:56;;;;;;;8.00;1.60;;;;;;;;;;6185511;23;20711;-75
2023/01/06 10:45:14;;;;;;;9.40;1.90;;;;;;;;;;6212037;23;20822;-75
2023/01/06 10:47:46;;;;;;;6.40;1.70;;;;;;;;;;6185983;23;20374;-76
2023/01/06 10:50:17;;;;;;;11.40;1.60;;;;;;;;;;6213178;23;20458;-76
2023/01/06 10:52:45;;;;;;;12.73;2.20;;;;;;;;;;6213284;23;20366;-76
2023/01/06 10:55:31;;;;;;;10.33;2.10;;;;;;;;;;6185053;23;20379;-76
2023/01/06 10:58:28;;;;;;;5.90;1.33;;;;;;;;;;6209905;23;20382;-76
2023/01/06 11:01:08;;;;;;;6.60;1.80;;;;;;;;;;6190058;23;20395;-76
2023/01/06 11:03:44;;;;;;;5.83;1.50;;;;;;;;;;6213179;23;20355;-75
2023/01/06 11:06:14;;;;;;;6.50;1.90;;;;;;;;;;6187119;23;20407;-76
2023/01/06 11:08:46;;;;;;;9.10;1.60;;;;;;;;;;6186515;23;20391;-76
2023/01/06 11:11:17;;;;;;;7.90;2.10;;;;;;;;;;6215100;23;20728;-77
2023/01/06 11:13:52;;;;;;;7.40;1.83;;;;;;;;;;6209752;23;20379;-76
2023/01/06 11:16:29;;;;;;;12.27;2.07;;;;;;;;;;6206586;23;20351;-76
2023/01/06 11:19:09;;;;;;;8.90;1.77;;;;;;;;;;6184622;23;20389;-78
2023/01/06 11:21:43;;;;;;;7.80;2.00;;;;;;;;;;6210247;23;20402;-76
2023/01/06 11:24:19;;;;;;;8.30;1.67;;;;;;;;;;6181201;23;20429;-77
2023/01/06 11:26:57;;;;;;;6.90;1.63;;;;;;;;;;6185237;23;20411;-75
2023/01/06 11:29:36;;;;;;;9.80;1.90;;;;;;;;;;6184878;23;20932;-75
2023/01/06 11:32:13;;;;;;;6.43;1.63;;;;;;;;;;6185698;23;20381;-75
2023/01/06 11:34:46;;;;;;;9.00;1.83;;;;;;;;;;6184391;23;20373;-75
2023/01/06 11:37:16;;;;;;;9.93;2.00;;;;;;;;;;6210938;23;20343;-74
2023/01/06 11:39:44;;;;;;;9.67;1.93;;;;;;;;;;6184869;23;20371;-75
2023/01/06 11:42:14;;;;;;;11.30;2.03;;;;;;;;;;6210858;23;20347;-74
2023/01/06 11:44:45;;;;;;;11.20;1.90;;;;;;;;;;6185909;23;20369;-75
2023/01/06 11:47:13;;;;;;;4.23;1.40;;;;;;;;;;6185356;23;20367;-75
2023/01/06 11:49:47;;;;;;;11.37;2.10;;;;;;;;;;6185783;23;20375;-75
2023/01/06 11:52:16;;;;;;;10.83;2.20;;;;;;;;;;6184602;23;20875;-75
2023/01/06 11:54:47;;;;;;;9.07;1.67;;;;;;;;;;6185035;23;20441;-75
2023/01/06 11:57:31;;;;;;;5.57;1.50;;;;;;;;;;6212168;23;20370;-75
2023/01/06 12:00:15;;;;;;;6.10;1.53;;;;;;;;;;6210442;23;20403;-75
2023/01/06 12:02:40;;;;;;;8.83;2.10;;;;;;;;;;6184732;23;20402;-78
2023/01/06 12:05:20;;;;;;;10.90;2.40;;;;;;;;;;6212083;23;20410;-75
2023/01/06 12:07:53;;;;;;;5.80;1.50;;;;;;;;;;6211791;23;20152;-75
2023/01/06 12:10:25;;;;;;;6.90;1.43;;;;;;;;;;6211222;23;20375;-75
2023/01/06 12:12:53;;;;;;;7.70;1.97;;;;;;;;;;6183771;23;20394;-75
2023/01/06 12:15:22;;;;;;;14.60;1.83;;;;;;;;;;6184889;23;20383;-78
2023/01/06 12:17:59;;;;;;;5.47;1.60;;;;;;;;;;6184455;23;20382;-76
2023/01/06 12:20:24;;;;;;;7.23;2.50;;;;;;;;;;6184094;23;20398;-76
2023/01/06 12:23:04;;;;;;;7.37;1.80;;;;;;;;;;6211270;23;20715;-75
2023/01/06 12:25:29;;;;;;;10.30;1.77;;;;;;;;;;6186060;23;20167;-75
2023/01/06 12:28:05;;;;;;;8.00;1.47;;;;;;;;;;6184893;23;20401;-75
2023/01/06 12:30:37;;;;;;;6.70;2.00;;;;;;;;;;6212685;23;20168;-75
2023/01/06 12:33:11;;;;;;;8.13;1.50;;;;;;;;;;6183405;23;20762;-75
2023/01/06 12:35:41;;;;;;;4.60;1.77;;;;;;;;;;6184234;23;20800;-75
2023/01/06 12:38:15;;;;;;;8.93;2.20;;;;;;;;;;6181457;23;20756;-76
2023/01/06 12:41:04;;;;;;;11.43;2.17;;;;;;;;;;6185030;23;20399;-75
2023/01/06 12:43:37;;;;;;;5.27;1.60;;;;;;;;;;6183217;23;20383;-74
2023/01/06 12:46:10;;;;;;;7.73;2.17;;;;;;;;;;6182263;23;20437;-75
2023/01/06 12:48:41;;;;;;;11.10;2.10;;;;;;;;;;6211422;23;20690;-74
2023/01/06 12:51:17;;;;;;;11.50;2.03;;;;;;;;;;6183887;23;20391;-75
2023/01/06 12:53:52;;;;;;;9.00;2.00;;;;;;;;;;6211756;23;20397;-75
2023/01/06 12:56:36;;;;;;;7.77;1.60;;;;;;;;;;6210734;23;20397;-75
2023/01/06 12:59:12;;;;;;;5.00;1.60;;;;;;;;;;6209324;23;20375;-76
2023/01/06 13:02:02;;;;;;;8.70;1.90;;;;;;;;;;6184810;23;20817;-76
2023/01/06 13:04:35;;;;;;;8.47;1.73;;;;;;;;;;6211233;23;20357;-75
2023/01/06 13:07:22;;;;;;;6.50;1.90;;;;;;;;;;6183493;23;20406;-75
2023/01/06 13:12:36;;;;;;;10.40;2.40;;;;;;;;;;6242473;23;20735;-77
2023/01/06 13:15:16;;;;;;;9.40;2.53;;;;;;;;;;6215024;23;20726;-77
2023/01/06 13:17:49;;;;;;;12.47;2.27;;;;;;;;;;6214972;23;20412;-77
2023/01/06 13:20:44;;;;;;;9.20;2.10;;;;;;;;;;6227776;23;20371;-76
2023/01/06 13:23:29;;;;;;;9.03;1.87;;;;;;;;;;6210260;23;20342;-77
2023/01/06 13:26:10;;;;;;;9.67;2.23;;;;;;;;;;6211545;23;20438;-77
2023/01/06 13:29:10;;;;;;;9.90;2.10;;;;;;;;;;6181289;23;20378;-76
2023/01/06 13:31:39;;;;;;;6.17;2.37;;;;;;;;;;6177088;23;20478;-76
2023/01/06 13:34:26;;;;;;;8.40;1.73;;;;;;;;;;6213957;23;20698;-76
2023/01/06 13:37:18;;;;;;;9.93;2.20;;;;;;;;;;6210839;23;20369;-75
2023/01/06 13:39:56;;;;;;;8.27;2.00;;;;;;;;;;6207245;23;20363;-75
2023/01/06 13:42:31;;;;;;;6.93;2.13;;;;;;;;;;6187110;23;20382;-75
2023/01/06 13:45:01;;;;;;;7.90;2.47;;;;;;;;;;6206403;23;20424;-73
2023/01/06 13:47:30;;;;;;;8.83;2.47;;;;;;;;;;6181441;23;20375;-74
2023/01/06 13:49:58;;;;;;;8.50;2.10;;;;;;;;;;6208793;23;20383;-74
2023/01/06 13:52:29;;;;;;;7.93;1.93;;;;;;;;;;6182776;23;20858;-77
2023/01/06 13:54:59;;;;;;;7.43;2.60;;;;;;;;;;6208613;23;20450;-72
2023/01/06 13:57:29;;;;;;;9.20;2.33;;;;;;;;;;6204956;23;20367;-73
2023/01/06 14:00:03;;;;;;;9.83;2.20;;;;;;;;;;6208505;23;20397;-72
2023/01/06 14:02:35;;;;;;;7.37;1.87;;;;;;;;;;6209478;23;20485;-70
2023/01/06 14:05:03;;;;;;;10.70;1.97;;;;;;;;;;6208123;23;20414;-71
2023/01/06 14:07:34;;;;;;;7.93;1.63;;;;;;;;;;6182774;23;20768;-72
2023/01/06 14:10:00;;;;;;;10.63;2.60;;;;;;;;;;6207410;23;20382;-72
2023/01/06 14:12:26;;;;;;;11.00;2.33;;;;;;;;;;6209801;23;20360;-73
2023/01/06 14:14:56;;;;;;;6.10;2.00;;;;;;;;;;6208774;23;20710;-72
2023/01/06 14:17:36;;;;;;;11.83;2.50;;;;;;;;;;6183316;23;20167;-72
2023/01/06 14:20:02;;;;;;;8.93;2.17;;;;;;;;;;6179990;23;20489;-72
2023/01/06 14:22:28;;;;;;;10.23;2.53;;;;;;;;;;6209161;23;20901;-73
2023/01/06 14:24:58;;;;;;;8.60;2.27;;;;;;;;;;6206695;23;20176;-72
2023/01/06 14:27:53;;;;;;;21.80;3.20;;;;;;;;;;6209649;23;20367;-71
2023/01/06 14:30:23;;;;;;;12.30;2.43;;;;;;;;;;6194844;23;20474;-71
2023/01/06 14:32:48;;;;;;;14.17;3.33;;;;;;;;;;6209083;23;20399;-71
2023/01/06 14:35:18;;;;;;;12.20;3.30;;;;;;;;;;6212060;23;20716;-71
2023/01/06 14:37:52;;;;;;;13.10;3.10;;;;;;;;;;6211815;23;20148;-71
2023/01/06 14:40:37;;;;;;;14.83;3.30;;;;;;;;;;6212992;23;20395;-70
2023/01/06 14:43:06;;;;;;;12.83;2.97;;;;;;;;;;6211575;23;20909;-71
2023/01/06 14:45:37;;;;;;;8.60;2.10;;;;;;;;;;6184536;23;20545;-71
2023/01/06 14:48:12;;;;;;;13.60;3.00;;;;;;;;;;6186101;23;20403;-71
2023/01/06 14:50:42;;;;;;;10.40;2.10;;;;;;;;;;6186202;23;20782;-71
2023/01/06 14:53:28;;;;;;;10.43;2.60;;;;;;;;;;6185692;23;20376;-71
2023/01/06 14:55:54;;;;;;;16.33;2.40;;;;;;;;;;6190291;23;20437;-72
2023/01/06 14:58:30;;;;;;;10.10;2.33;;;;;;;;;;6212377;23;20367;-71
2023/01/06 15:00:55;;;;;;;7.50;2.57;;;;;;;;;;6184709;23;20398;-71
2023/01/06 15:03:21;;;;;;;16.50;3.23;;;;;;;;;;6211863;23;20441;-71
2023/01/06 15:05:47;;;;;;;10.53;2.87;;;;;;;;;;6210157;23;20255;-72
2023/01/06 15:08:14;;;;;;;7.97;2.33;;;;;;;;;;6185320;23;20383;-71
2023/01/06 15:10:41;;;;;;;9.50;3.20;;;;;;;;;;6211628;23;20219;-68
2023/01/06 15:13:25;;;;;;;9.53;4.70;;;;;;;;;;6212259;23;20842;-68
2023/01/06 15:16:13;;;;;;;10.83;4.40;;;;;;;;;;6210956;23;20432;-69
2023/01/06 15:18:43;;;;;;;10.60;3.30;;;;;;;;;;6200067;23;20457;-68
2023/01/06 15:21:08;;;;;;;5.87;2.10;;;;;;;;;;6181611;23;20395;-68
2023/01/06 15:23:41;;;;;;;11.27;4.07;;;;;;;;;;6212070;23;20371;-68
2023/01/06 15:26:14;;;;;;;10.60;3.40;;;;;;;;;;6184494;23;20317;-68
2023/01/06 15:28:39;;;;;;;13.37;3.40;;;;;;;;;;6211416;23;20560;-68
2023/01/06 15:31:05;;;;;;;12.07;3.90;;;;;;;;;;6210607;23;20382;-67